Terminal Aerodrome Forecast
Issued by NWS Boston, MA

Home | Current Version | Previous Version | Text Only | Print | Product List | Glossary On
Versions: 1 2 3 4 5 6 7 8 9 10 11 12 13 14 15 16 17 18 19 20 21 22 23 24 25 26 27 28 29 30 31 32 33 34 35 36 37 38 39 40 41 42 43 44 45 46
000
FTUS41 KBOX 161122
TAFBDL
TAF
KBDL 161122Z 1612/1718 18006KT P6SM OVC080
     FM161700 19006KT 5SM -SHRA OVC045
     FM162300 27005KT 5SM BR VCSH OVC015
     FM170000 23005KT P6SM VCSH BKN020
     FM170400 30004KT P6SM BKN030
     FM170500 31003KT P6SM BKN040
     FM171200 35004KT P6SM BKN120=

USA.gov is the U.S. government's official web portal to all federal, state and local government web resources and services.